sensor_id;sensor_type;location;lat;lon;timestamp;P1;durP1;ratioP1;P2;durP2;ratioP2
19905;SDS011;10115;50.906;4.438;2022-07-10T00:02:09;2.90;;;2.67;;
19905;SDS011;10115;50.906;4.438;2022-07-10T00:04:34;5.80;;;2.40;;
19905;SDS011;10115;50.906;4.438;2022-07-10T00:07:00;7.07;;;2.40;;
19905;SDS011;10115;50.906;4.438;2022-07-10T00:09:27;4.93;;;2.20;;
19905;SDS011;10115;50.906;4.438;2022-07-10T00:11:53;2.33;;;1.93;;
19905;SDS011;10115;50.906;4.438;2022-07-10T00:14:19;1.80;;;1.70;;
19905;SDS011;10115;50.906;4.438;2022-07-10T00:16:45;7.30;;;2.03;;
19905;SDS011;10115;50.906;4.438;2022-07-10T00:19:11;5.53;;;2.80;;
19905;SDS011;10115;50.906;4.438;2022-07-10T00:21:37;4.10;;;2.33;;
19905;SDS011;10115;50.906;4.438;2022-07-10T00:24:03;2.27;;;2.07;;
19905;SDS011;10115;50.906;4.438;2022-07-10T00:26:29;5.00;;;2.00;;
19905;SDS011;10115;50.906;4.438;2022-07-10T00:28:55;5.00;;;2.20;;
19905;SDS011;10115;50.906;4.438;2022-07-10T00:31:21;9.30;;;2.40;;
19905;SDS011;10115;50.906;4.438;2022-07-10T00:33:47;10.00;;;3.07;;
19905;SDS011;10115;50.906;4.438;2022-07-10T00:36:13;4.70;;;1.97;;
19905;SDS011;10115;50.906;4.438;2022-07-10T00:38:39;4.80;;;2.03;;
19905;SDS011;10115;50.906;4.438;2022-07-10T00:41:05;3.40;;;2.20;;
19905;SDS011;10115;50.906;4.438;2022-07-10T00:43:50;2.63;;;1.93;;
19905;SDS011;10115;50.906;4.438;2022-07-10T00:46:20;2.37;;;2.10;;
19905;SDS011;10115;50.906;4.438;2022-07-10T00:48:47;2.17;;;2.00;;
19905;SDS011;10115;50.906;4.438;2022-07-10T00:51:13;7.67;;;2.10;;
19905;SDS011;10115;50.906;4.438;2022-07-10T00:53:41;1.80;;;1.70;;
19905;SDS011;10115;50.906;4.438;2022-07-10T00:56:07;2.30;;;1.80;;
19905;SDS011;10115;50.906;4.438;2022-07-10T00:58:35;3.13;;;2.73;;
19905;SDS011;10115;50.906;4.438;2022-07-10T01:01:01;3.50;;;2.00;;
19905;SDS011;10115;50.906;4.438;2022-07-10T01:03:27;4.10;;;2.37;;
19905;SDS011;10115;50.906;4.438;2022-07-10T01:05:53;2.87;;;1.83;;
19905;SDS011;10115;50.906;4.438;2022-07-10T01:08:19;1.83;;;1.73;;
19905;SDS011;10115;50.906;4.438;2022-07-10T01:10:45;3.00;;;2.00;;
19905;SDS011;10115;50.906;4.438;2022-07-10T01:13:12;3.17;;;2.30;;
19905;SDS011;10115;50.906;4.438;2022-07-10T01:15:38;5.30;;;2.03;;
19905;SDS011;10115;50.906;4.438;2022-07-10T01:18:04;2.97;;;1.80;;
19905;SDS011;10115;50.906;4.438;2022-07-10T01:20:30;6.80;;;2.40;;
19905;SDS011;10115;50.906;4.438;2022-07-10T01:23:00;1.73;;;1.70;;
19905;SDS011;10115;50.906;4.438;2022-07-10T01:25:26;3.57;;;2.10;;
19905;SDS011;10115;50.906;4.438;2022-07-10T01:27:52;2.23;;;2.03;;
19905;SDS011;10115;50.906;4.438;2022-07-10T01:30:19;5.70;;;2.30;;
19905;SDS011;10115;50.906;4.438;2022-07-10T01:32:46;5.90;;;2.47;;
19905;SDS011;10115;50.906;4.438;2022-07-10T01:35:12;2.57;;;1.97;;
19905;SDS011;10115;50.906;4.438;2022-07-10T01:37:41;3.97;;;2.00;;
19905;SDS011;10115;50.906;4.438;2022-07-10T01:40:07;2.33;;;2.13;;
19905;SDS011;10115;50.906;4.438;2022-07-10T01:42:33;3.20;;;2.53;;
19905;SDS011;10115;50.906;4.438;2022-07-10T01:44:59;4.10;;;1.97;;
19905;SDS011;10115;50.906;4.438;2022-07-10T01:47:25;3.77;;;2.20;;
19905;SDS011;10115;50.906;4.438;2022-07-10T01:49:51;2.90;;;2.40;;
19905;SDS011;10115;50.906;4.438;2022-07-10T01:52:18;9.13;;;2.13;;
19905;SDS011;10115;50.906;4.438;2022-07-10T01:54:44;5.30;;;2.40;;
19905;SDS011;10115;50.906;4.438;2022-07-10T01:57:11;5.77;;;2.37;;
19905;SDS011;10115;50.906;4.438;2022-07-10T01:59:36;4.50;;;2.17;;
19905;SDS011;10115;50.906;4.438;2022-07-10T02:02:02;4.40;;;2.03;;
19905;SDS011;10115;50.906;4.438;2022-07-10T02:04:28;2.60;;;2.40;;
19905;SDS011;10115;50.906;4.438;2022-07-10T02:07:14;4.93;;;2.87;;
19905;SDS011;10115;50.906;4.438;2022-07-10T02:09:44;6.77;;;2.67;;
19905;SDS011;10115;50.906;4.438;2022-07-10T02:12:11;11.57;;;2.70;;
19905;SDS011;10115;50.906;4.438;2022-07-10T02:14:38;5.97;;;2.83;;
19905;SDS011;10115;50.906;4.438;2022-07-10T02:17:04;5.77;;;2.40;;
19905;SDS011;10115;50.906;4.438;2022-07-10T02:19:31;6.03;;;2.60;;
19905;SDS011;10115;50.906;4.438;2022-07-10T02:21:57;3.17;;;2.40;;
19905;SDS011;10115;50.906;4.438;2022-07-10T02:24:26;7.10;;;2.53;;
19905;SDS011;10115;50.906;4.438;2022-07-10T02:26:52;4.47;;;2.20;;
19905;SDS011;10115;50.906;4.438;2022-07-10T02:29:20;2.20;;;2.10;;
19905;SDS011;10115;50.906;4.438;2022-07-10T02:31:45;7.33;;;2.63;;
19905;SDS011;10115;50.906;4.438;2022-07-10T02:34:11;2.60;;;2.40;;
19905;SDS011;10115;50.906;4.438;2022-07-10T02:36:38;5.50;;;2.10;;
19905;SDS011;10115;50.906;4.438;2022-07-10T02:39:04;5.20;;;2.63;;
19905;SDS011;10115;50.906;4.438;2022-07-10T02:41:31;3.97;;;2.40;;
19905;SDS011;10115;50.906;4.438;2022-07-10T02:43:57;6.40;;;2.43;;
19905;SDS011;10115;50.906;4.438;2022-07-10T02:46:23;2.50;;;2.30;;
19905;SDS011;10115;50.906;4.438;2022-07-10T02:48:50;3.13;;;2.27;;
19905;SDS011;10115;50.906;4.438;2022-07-10T02:51:15;3.90;;;2.73;;
19905;SDS011;10115;50.906;4.438;2022-07-10T02:53:41;2.57;;;2.20;;
19905;SDS011;10115;50.906;4.438;2022-07-10T02:56:07;4.40;;;2.30;;
19905;SDS011;10115;50.906;4.438;2022-07-10T02:58:33;9.10;;;2.40;;
19905;SDS011;10115;50.906;4.438;2022-07-10T03:00:58;2.77;;;2.03;;
19905;SDS011;10115;50.906;4.438;2022-07-10T03:03:24;2.40;;;2.00;;
19905;SDS011;10115;50.906;4.438;2022-07-10T03:05:50;2.80;;;2.27;;
19905;SDS011;10115;50.906;4.438;2022-07-10T03:08:16;4.27;;;2.33;;
19905;SDS011;10115;50.906;4.438;2022-07-10T03:10:42;4.90;;;2.40;;
19905;SDS011;10115;50.906;4.438;2022-07-10T03:13:08;2.60;;;2.17;;
19905;SDS011;10115;50.906;4.438;2022-07-10T03:15:34;5.13;;;2.83;;
19905;SDS011;10115;50.906;4.438;2022-07-10T03:17:59;9.37;;;2.40;;
19905;SDS011;10115;50.906;4.438;2022-07-10T03:20:25;4.73;;;2.47;;
19905;SDS011;10115;50.906;4.438;2022-07-10T03:22:51;2.33;;;2.23;;
19905;SDS011;10115;50.906;4.438;2022-07-10T03:25:17;2.57;;;2.37;;
19905;SDS011;10115;50.906;4.438;2022-07-10T03:27:42;2.23;;;2.03;;
19905;SDS011;10115;50.906;4.438;2022-07-10T03:30:08;3.07;;;2.13;;
19905;SDS011;10115;50.906;4.438;2022-07-10T03:32:34;7.27;;;2.37;;
19905;SDS011;10115;50.906;4.438;2022-07-10T03:35:00;7.20;;;2.60;;
19905;SDS011;10115;50.906;4.438;2022-07-10T03:37:26;3.57;;;2.47;;
19905;SDS011;10115;50.906;4.438;2022-07-10T03:39:52;3.23;;;2.63;;
19905;SDS011;10115;50.906;4.438;2022-07-10T03:42:18;2.13;;;2.03;;
19905;SDS011;10115;50.906;4.438;2022-07-10T03:44:44;3.70;;;2.67;;
19905;SDS011;10115;50.906;4.438;2022-07-10T03:47:10;8.27;;;2.47;;
19905;SDS011;10115;50.906;4.438;2022-07-10T03:49:36;9.23;;;2.50;;
19905;SDS011;10115;50.906;4.438;2022-07-10T03:52:04;4.83;;;2.87;;
19905;SDS011;10115;50.906;4.438;2022-07-10T03:54:30;2.77;;;2.57;;
19905;SDS011;10115;50.906;4.438;2022-07-10T03:56:56;4.03;;;3.00;;
19905;SDS011;10115;50.906;4.438;2022-07-10T03:59:41;3.47;;;2.50;;
19905;SDS011;10115;50.906;4.438;2022-07-10T04:02:07;3.70;;;2.83;;
19905;SDS011;10115;50.906;4.438;2022-07-10T04:04:32;8.60;;;2.13;;
19905;SDS011;10115;50.906;4.438;2022-07-10T04:06:58;5.00;;;2.67;;
19905;SDS011;10115;50.906;4.438;2022-07-10T04:09:24;2.53;;;2.30;;
19905;SDS011;10115;50.906;4.438;2022-07-10T04:11:49;2.57;;;2.37;;
19905;SDS011;10115;50.906;4.438;2022-07-10T04:14:15;4.10;;;2.70;;
19905;SDS011;10115;50.906;4.438;2022-07-10T04:16:41;2.57;;;2.37;;
19905;SDS011;10115;50.906;4.438;2022-07-10T04:19:07;3.07;;;2.57;;
19905;SDS011;10115;50.906;4.438;2022-07-10T04:21:32;4.20;;;2.33;;
19905;SDS011;10115;50.906;4.438;2022-07-10T04:23:58;2.40;;;2.20;;
19905;SDS011;10115;50.906;4.438;2022-07-10T04:26:24;2.70;;;2.50;;
19905;SDS011;10115;50.906;4.438;2022-07-10T04:28:50;2.83;;;2.60;;
19905;SDS011;10115;50.906;4.438;2022-07-10T04:31:15;2.50;;;2.30;;
19905;SDS011;10115;50.906;4.438;2022-07-10T04:33:41;4.47;;;2.40;;
19905;SDS011;10115;50.906;4.438;2022-07-10T04:36:07;5.73;;;2.70;;
19905;SDS011;10115;50.906;4.438;2022-07-10T04:38:32;7.80;;;2.50;;
19905;SDS011;10115;50.906;4.438;2022-07-10T04:40:59;4.00;;;2.47;;
19905;SDS011;10115;50.906;4.438;2022-07-10T04:43:25;4.37;;;2.90;;
19905;SDS011;10115;50.906;4.438;2022-07-10T04:45:51;4.20;;;2.67;;
19905;SDS011;10115;50.906;4.438;2022-07-10T04:48:17;5.23;;;2.53;;
19905;SDS011;10115;50.906;4.438;2022-07-10T04:50:43;5.37;;;2.40;;
19905;SDS011;10115;50.906;4.438;2022-07-10T04:53:09;3.10;;;2.77;;
19905;SDS011;10115;50.906;4.438;2022-07-10T04:55:35;5.77;;;2.80;;
19905;SDS011;10115;50.906;4.438;2022-07-10T04:58:00;2.60;;;2.40;;
19905;SDS011;10115;50.906;4.438;2022-07-10T05:00:26;2.70;;;2.50;;
19905;SDS011;10115;50.906;4.438;2022-07-10T05:02:52;3.33;;;2.40;;
19905;SDS011;10115;50.906;4.438;2022-07-10T05:05:17;3.43;;;2.40;;
19905;SDS011;10115;50.906;4.438;2022-07-10T05:07:43;5.00;;;2.60;;
19905;SDS011;10115;50.906;4.438;2022-07-10T05:10:09;7.87;;;2.77;;
19905;SDS011;10115;50.906;4.438;2022-07-10T05:12:35;3.40;;;2.20;;
19905;SDS011;10115;50.906;4.438;2022-07-10T05:15:01;3.77;;;2.67;;
19905;SDS011;10115;50.906;4.438;2022-07-10T05:17:27;5.87;;;2.73;;
19905;SDS011;10115;50.906;4.438;2022-07-10T05:19:57;4.73;;;2.67;;
19905;SDS011;10115;50.906;4.438;2022-07-10T05:22:23;2.30;;;2.17;;
19905;SDS011;10115;50.906;4.438;2022-07-10T05:24:49;2.80;;;2.60;;
19905;SDS011;10115;50.906;4.438;2022-07-10T05:27:15;2.90;;;2.53;;
19905;SDS011;10115;50.906;4.438;2022-07-10T05:29:44;2.63;;;2.30;;
19905;SDS011;10115;50.906;4.438;2022-07-10T05:32:09;5.60;;;2.33;;
19905;SDS011;10115;50.906;4.438;2022-07-10T05:34:35;2.33;;;2.23;;
19905;SDS011;10115;50.906;4.438;2022-07-10T05:37:01;6.30;;;2.23;;
19905;SDS011;10115;50.906;4.438;2022-07-10T05:39:26;1.90;;;1.80;;
19905;SDS011;10115;50.906;4.438;2022-07-10T05:41:52;3.73;;;2.00;;
19905;SDS011;10115;50.906;4.438;2022-07-10T05:44:21;3.03;;;2.67;;
19905;SDS011;10115;50.906;4.438;2022-07-10T05:46:47;2.37;;;2.17;;
19905;SDS011;10115;50.906;4.438;2022-07-10T05:49:13;5.70;;;3.20;;
19905;SDS011;10115;50.906;4.438;2022-07-10T05:51:38;6.13;;;2.43;;
19905;SDS011;10115;50.906;4.438;2022-07-10T05:54:05;2.57;;;2.37;;
19905;SDS011;10115;50.906;4.438;2022-07-10T05:56:30;5.80;;;2.40;;
19905;SDS011;10115;50.906;4.438;2022-07-10T05:58:56;8.83;;;2.30;;
19905;SDS011;10115;50.906;4.438;2022-07-10T06:01:22;6.80;;;2.60;;
19905;SDS011;10115;50.906;4.438;2022-07-10T06:03:49;2.57;;;2.27;;
19905;SDS011;10115;50.906;4.438;2022-07-10T06:06:14;4.50;;;2.73;;
19905;SDS011;10115;50.906;4.438;2022-07-10T06:08:41;3.37;;;2.63;;
19905;SDS011;10115;50.906;4.438;2022-07-10T06:11:07;3.37;;;1.97;;
19905;SDS011;10115;50.906;4.438;2022-07-10T06:13:33;7.67;;;2.43;;
19905;SDS011;10115;50.906;4.438;2022-07-10T06:15:59;3.57;;;2.23;;
19905;SDS011;10115;50.906;4.438;2022-07-10T06:18:24;2.23;;;2.03;;
19905;SDS011;10115;50.906;4.438;2022-07-10T06:20:50;3.67;;;2.73;;
19905;SDS011;10115;50.906;4.438;2022-07-10T06:23:16;3.40;;;2.63;;
19905;SDS011;10115;50.906;4.438;2022-07-10T06:25:42;2.00;;;1.90;;
19905;SDS011;10115;50.906;4.438;2022-07-10T06:28:07;4.60;;;2.33;;
19905;SDS011;10115;50.906;4.438;2022-07-10T06:30:33;6.57;;;2.47;;
19905;SDS011;10115;50.906;4.438;2022-07-10T06:32:59;6.03;;;2.30;;
19905;SDS011;10115;50.906;4.438;2022-07-10T06:35:24;4.10;;;2.40;;
19905;SDS011;10115;50.906;4.438;2022-07-10T06:37:50;4.63;;;2.10;;
19905;SDS011;10115;50.906;4.438;2022-07-10T06:40:16;2.20;;;2.03;;
19905;SDS011;10115;50.906;4.438;2022-07-10T06:42:45;2.43;;;1.93;;
19905;SDS011;10115;50.906;4.438;2022-07-10T06:45:10;2.40;;;2.20;;
19905;SDS011;10115;50.906;4.438;2022-07-10T06:47:36;2.63;;;1.90;;
19905;SDS011;10115;50.906;4.438;2022-07-10T06:50:20;3.77;;;2.30;;
19905;SDS011;10115;50.906;4.438;2022-07-10T06:52:47;2.30;;;1.80;;
19905;SDS011;10115;50.906;4.438;2022-07-10T06:55:13;8.83;;;2.20;;
19905;SDS011;10115;50.906;4.438;2022-07-10T06:57:39;2.50;;;2.03;;
19905;SDS011;10115;50.906;4.438;2022-07-10T07:00:05;2.13;;;1.93;;
19905;SDS011;10115;50.906;4.438;2022-07-10T07:02:32;2.40;;;1.93;;
19905;SDS011;10115;50.906;4.438;2022-07-10T07:04:58;9.47;;;2.73;;
19905;SDS011;10115;50.906;4.438;2022-07-10T07:07:23;3.73;;;1.93;;
19905;SDS011;10115;50.906;4.438;2022-07-10T07:09:49;4.00;;;2.00;;
19905;SDS011;10115;50.906;4.438;2022-07-10T07:12:15;1.90;;;1.80;;
19905;SDS011;10115;50.906;4.438;2022-07-10T07:14:42;14.47;;;2.40;;
19905;SDS011;10115;50.906;4.438;2022-07-10T07:17:09;3.67;;;2.00;;
19905;SDS011;10115;50.906;4.438;2022-07-10T07:19:36;3.63;;;2.23;;
19905;SDS011;10115;50.906;4.438;2022-07-10T07:22:23;2.60;;;1.90;;
19905;SDS011;10115;50.906;4.438;2022-07-10T07:25:08;8.10;;;2.17;;
19905;SDS011;10115;50.906;4.438;2022-07-10T07:27:38;2.40;;;1.80;;
19905;SDS011;10115;50.906;4.438;2022-07-10T07:30:05;3.07;;;2.20;;
19905;SDS011;10115;50.906;4.438;2022-07-10T07:32:32;4.90;;;2.13;;
19905;SDS011;10115;50.906;4.438;2022-07-10T07:34:58;2.50;;;2.00;;
19905;SDS011;10115;50.906;4.438;2022-07-10T07:40:23;3.00;;;2.00;;
19905;SDS011;10115;50.906;4.438;2022-07-10T07:42:52;1.60;;;1.50;;
19905;SDS011;10115;50.906;4.438;2022-07-10T07:45:19;1.77;;;1.67;;
19905;SDS011;10115;50.906;4.438;2022-07-10T07:47:55;6.10;;;2.40;;
19905;SDS011;10115;50.906;4.438;2022-07-10T07:50:29;1.90;;;1.80;;
19905;SDS011;10115;50.906;4.438;2022-07-10T07:52:57;1.57;;;1.47;;
19905;SDS011;10115;50.906;4.438;2022-07-10T07:55:23;2.23;;;1.63;;
19905;SDS011;10115;50.906;4.438;2022-07-10T07:57:53;3.33;;;1.80;;
19905;SDS011;10115;50.906;4.438;2022-07-10T08:00:20;3.70;;;1.63;;
19905;SDS011;10115;50.906;4.438;2022-07-10T08:02:48;4.53;;;2.10;;
19905;SDS011;10115;50.906;4.438;2022-07-10T08:05:14;5.10;;;2.33;;
19905;SDS011;10115;50.906;4.438;2022-07-10T08:07:41;6.13;;;2.27;;
19905;SDS011;10115;50.906;4.438;2022-07-10T08:10:12;4.03;;;1.90;;
19905;SDS011;10115;50.906;4.438;2022-07-10T08:12:41;2.70;;;1.80;;
19905;SDS011;10115;50.906;4.438;2022-07-10T08:15:08;2.30;;;2.10;;
19905;SDS011;10115;50.906;4.438;2022-07-10T08:17:38;2.00;;;1.77;;
19905;SDS011;10115;50.906;4.438;2022-07-10T08:20:05;4.43;;;2.43;;
19905;SDS011;10115;50.906;4.438;2022-07-10T08:22:32;3.67;;;1.77;;
19905;SDS011;10115;50.906;4.438;2022-07-10T08:24:58;1.90;;;1.80;;
19905;SDS011;10115;50.906;4.438;2022-07-10T08:27:24;3.27;;;1.80;;
19905;SDS011;10115;50.906;4.438;2022-07-10T08:29:50;6.40;;;2.17;;
19905;SDS011;10115;50.906;4.438;2022-07-10T08:32:16;3.43;;;1.67;;
19905;SDS011;10115;50.906;4.438;2022-07-10T08:34:42;3.30;;;1.77;;
19905;SDS011;10115;50.906;4.438;2022-07-10T08:37:08;7.53;;;1.90;;
19905;SDS011;10115;50.906;4.438;2022-07-10T08:39:34;3.43;;;2.03;;
19905;SDS011;10115;50.906;4.438;2022-07-10T08:42:00;2.70;;;1.87;;
19905;SDS011;10115;50.906;4.438;2022-07-10T08:44:27;2.47;;;1.80;;
19905;SDS011;10115;50.906;4.438;2022-07-10T08:46:54;5.80;;;2.07;;
19905;SDS011;10115;50.906;4.438;2022-07-10T08:49:20;3.17;;;2.00;;
19905;SDS011;10115;50.906;4.438;2022-07-10T08:54:27;3.57;;;2.10;;
19905;SDS011;10115;50.906;4.438;2022-07-10T08:56:56;4.23;;;1.97;;
19905;SDS011;10115;50.906;4.438;2022-07-10T08:59:23;3.53;;;2.27;;
19905;SDS011;10115;50.906;4.438;2022-07-10T09:01:48;4.87;;;2.37;;
19905;SDS011;10115;50.906;4.438;2022-07-10T09:04:18;3.53;;;1.80;;
19905;SDS011;10115;50.906;4.438;2022-07-10T09:06:48;4.60;;;2.17;;
19905;SDS011;10115;50.906;4.438;2022-07-10T09:09:15;2.57;;;2.07;;
19905;SDS011;10115;50.906;4.438;2022-07-10T09:11:41;3.37;;;1.63;;
19905;SDS011;10115;50.906;4.438;2022-07-10T09:14:08;3.00;;;1.67;;
19905;SDS011;10115;50.906;4.438;2022-07-10T09:16:45;3.17;;;1.97;;
19905;SDS011;10115;50.906;4.438;2022-07-10T09:19:22;2.30;;;2.10;;
19905;SDS011;10115;50.906;4.438;2022-07-10T09:21:53;3.53;;;2.27;;
19905;SDS011;10115;50.906;4.438;2022-07-10T09:24:36;2.50;;;1.70;;
19905;SDS011;10115;50.906;4.438;2022-07-10T09:27:06;3.53;;;2.17;;
19905;SDS011;10115;50.906;4.438;2022-07-10T09:29:32;2.00;;;1.80;;
19905;SDS011;10115;50.906;4.438;2022-07-10T09:32:10;4.00;;;2.10;;
19905;SDS011;10115;50.906;4.438;2022-07-10T09:34:41;5.40;;;2.00;;
19905;SDS011;10115;50.906;4.438;2022-07-10T09:39:55;2.30;;;1.90;;
19905;SDS011;10115;50.906;4.438;2022-07-10T09:42:31;2.00;;;1.90;;
19905;SDS011;10115;50.906;4.438;2022-07-10T09:47:57;4.53;;;2.43;;
19905;SDS011;10115;50.906;4.438;2022-07-10T09:50:35;6.07;;;2.60;;
19905;SDS011;10115;50.906;4.438;2022-07-10T09:53:02;2.60;;;2.17;;
19905;SDS011;10115;50.906;4.438;2022-07-10T09:55:29;2.93;;;2.03;;
19905;SDS011;10115;50.906;4.438;2022-07-10T09:58:06;5.67;;;2.50;;
19905;SDS011;10115;50.906;4.438;2022-07-10T10:00:34;3.47;;;2.20;;
19905;SDS011;10115;50.906;4.438;2022-07-10T10:03:05;5.07;;;2.40;;
19905;SDS011;10115;50.906;4.438;2022-07-10T10:08:20;2.70;;;2.47;;
19905;SDS011;10115;50.906;4.438;2022-07-10T10:10:50;4.07;;;2.57;;
19905;SDS011;10115;50.906;4.438;2022-07-10T10:13:18;6.23;;;3.17;;
19905;SDS011;10115;50.906;4.438;2022-07-10T10:15:46;5.60;;;2.20;;
19905;SDS011;10115;50.906;4.438;2022-07-10T10:18:15;2.80;;;2.50;;
19905;SDS011;10115;50.906;4.438;2022-07-10T10:20:42;2.87;;;2.57;;
19905;SDS011;10115;50.906;4.438;2022-07-10T10:23:12;4.03;;;2.50;;
19905;SDS011;10115;50.906;4.438;2022-07-10T10:25:39;2.50;;;2.33;;
19905;SDS011;10115;50.906;4.438;2022-07-10T10:28:05;3.13;;;2.87;;
19905;SDS011;10115;50.906;4.438;2022-07-10T10:30:35;4.43;;;2.93;;
19905;SDS011;10115;50.906;4.438;2022-07-10T10:36:02;2.97;;;2.00;;
19905;SDS011;10115;50.906;4.438;2022-07-10T10:46:33;3.27;;;2.60;;
19905;SDS011;10115;50.906;4.438;2022-07-10T10:49:06;4.10;;;2.33;;
19905;SDS011;10115;50.906;4.438;2022-07-10T10:57:21;2.47;;;2.27;;
19905;SDS011;10115;50.906;4.438;2022-07-10T10:59:48;2.10;;;2.00;;
19905;SDS011;10115;50.906;4.438;2022-07-10T11:02:31;2.37;;;1.97;;
19905;SDS011;10115;50.906;4.438;2022-07-10T11:10:26;3.37;;;2.23;;
19905;SDS011;10115;50.906;4.438;2022-07-10T11:13:00;3.40;;;1.80;;
19905;SDS011;10115;50.906;4.438;2022-07-10T11:15:26;2.37;;;1.90;;
19905;SDS011;10115;50.906;4.438;2022-07-10T11:17:58;8.30;;;2.43;;
19905;SDS011;10115;50.906;4.438;2022-07-10T11:20:24;4.43;;;2.83;;
19905;SDS011;10115;50.906;4.438;2022-07-10T11:31:16;2.67;;;2.33;;
19905;SDS011;10115;50.906;4.438;2022-07-10T11:33:44;4.80;;;2.37;;
19905;SDS011;10115;50.906;4.438;2022-07-10T11:36:12;2.83;;;2.07;;
19905;SDS011;10115;50.906;4.438;2022-07-10T11:38:40;1.73;;;1.63;;
19905;SDS011;10115;50.906;4.438;2022-07-10T11:41:20;1.70;;;1.60;;
19905;SDS011;10115;50.906;4.438;2022-07-10T11:43:58;1.73;;;1.63;;
19905;SDS011;10115;50.906;4.438;2022-07-10T11:46:26;2.43;;;2.07;;
19905;SDS011;10115;50.906;4.438;2022-07-10T11:48:53;2.97;;;1.80;;
19905;SDS011;10115;50.906;4.438;2022-07-10T11:51:28;2.37;;;1.80;;
19905;SDS011;10115;50.906;4.438;2022-07-10T11:53:59;2.83;;;1.40;;
19905;SDS011;10115;50.906;4.438;2022-07-10T11:56:37;1.75;;;1.60;;
19905;SDS011;10115;50.906;4.438;2022-07-10T11:59:06;2.70;;;1.70;;
19905;SDS011;10115;50.906;4.438;2022-07-10T12:01:34;2.28;;;2.08;;
19905;SDS011;10115;50.906;4.438;2022-07-10T12:04:06;2.20;;;1.70;;
19905;SDS011;10115;50.906;4.438;2022-07-10T12:06:34;2.17;;;1.58;;
19905;SDS011;10115;50.906;4.438;2022-07-10T12:09:06;2.92;;;1.77;;
19905;SDS011;10115;50.906;4.438;2022-07-10T12:11:36;4.03;;;1.50;;
19905;SDS011;10115;50.906;4.438;2022-07-10T12:16:43;1.55;;;1.45;;
19905;SDS011;10115;50.906;4.438;2022-07-10T12:19:11;1.65;;;1.55;;
19905;SDS011;10115;50.906;4.438;2022-07-10T12:21:39;1.90;;;1.80;;
19905;SDS011;10115;50.906;4.438;2022-07-10T12:24:06;2.00;;;1.67;;
19905;SDS011;10115;50.906;4.438;2022-07-10T12:26:33;1.70;;;1.60;;
19905;SDS011;10115;50.906;4.438;2022-07-10T12:29:01;2.80;;;1.88;;
19905;SDS011;10115;50.906;4.438;2022-07-10T12:31:33;1.70;;;1.25;;
19905;SDS011;10115;50.906;4.438;2022-07-10T12:34:03;5.15;;;1.83;;
19905;SDS011;10115;50.906;4.438;2022-07-10T12:36:42;4.20;;;1.80;;
19905;SDS011;10115;50.906;4.438;2022-07-10T12:39:10;3.67;;;1.95;;
19905;SDS011;10115;50.906;4.438;2022-07-10T12:41:55;3.25;;;1.80;;
19905;SDS011;10115;50.906;4.438;2022-07-10T12:47:01;1.80;;;1.70;;
19905;SDS011;10115;50.906;4.438;2022-07-10T12:52:30;2.47;;;1.47;;
19905;SDS011;10115;50.906;4.438;2022-07-10T12:55:17;2.03;;;1.40;;
19905;SDS011;10115;50.906;4.438;2022-07-10T12:57:53;2.42;;;1.70;;
19905;SDS011;10115;50.906;4.438;2022-07-10T13:02:46;5.15;;;2.50;;
19905;SDS011;10115;50.906;4.438;2022-07-10T13:05:39;4.55;;;1.80;;
19905;SDS011;10115;50.906;4.438;2022-07-10T13:08:05;2.42;;;1.75;;
19905;SDS011;10115;50.906;4.438;2022-07-10T13:10:36;1.83;;;1.50;;
19905;SDS011;10115;50.906;4.438;2022-07-10T13:13:03;1.42;;;1.33;;
19905;SDS011;10115;50.906;4.438;2022-07-10T13:15:29;2.97;;;1.83;;
19905;SDS011;10115;50.906;4.438;2022-07-10T13:17:55;3.13;;;1.50;;
19905;SDS011;10115;50.906;4.438;2022-07-10T13:20:22;2.33;;;1.60;;
19905;SDS011;10115;50.906;4.438;2022-07-10T13:22:48;1.63;;;1.25;;
19905;SDS011;10115;50.906;4.438;2022-07-10T13:25:13;1.83;;;1.20;;
19905;SDS011;10115;50.906;4.438;2022-07-10T13:27:39;7.65;;;1.50;;
19905;SDS011;10115;50.906;4.438;2022-07-10T13:30:05;2.95;;;1.40;;
19905;SDS011;10115;50.906;4.438;2022-07-10T13:32:32;6.53;;;1.00;;
19905;SDS011;10115;50.906;4.438;2022-07-10T13:34:58;2.15;;;1.08;;
19905;SDS011;10115;50.906;4.438;2022-07-10T13:37:24;4.13;;;1.85;;
19905;SDS011;10115;50.906;4.438;2022-07-10T13:39:50;2.40;;;1.00;;
19905;SDS011;10115;50.906;4.438;2022-07-10T13:42:16;2.15;;;1.40;;
19905;SDS011;10115;50.906;4.438;2022-07-10T13:44:41;1.42;;;1.15;;
19905;SDS011;10115;50.906;4.438;2022-07-10T13:47:07;1.40;;;1.30;;
19905;SDS011;10115;50.906;4.438;2022-07-10T13:49:33;2.13;;;1.00;;
19905;SDS011;10115;50.906;4.438;2022-07-10T13:51:59;3.60;;;1.42;;
19905;SDS011;10115;50.906;4.438;2022-07-10T13:54:24;3.22;;;1.13;;
19905;SDS011;10115;50.906;4.438;2022-07-10T13:56:51;2.35;;;1.38;;
19905;SDS011;10115;50.906;4.438;2022-07-10T13:59:16;1.20;;;1.10;;
19905;SDS011;10115;50.906;4.438;2022-07-10T14:01:42;3.03;;;1.02;;
19905;SDS011;10115;50.906;4.438;2022-07-10T14:04:08;1.88;;;1.23;;
19905;SDS011;10115;50.906;4.438;2022-07-10T14:06:33;0.95;;;0.90;;
19905;SDS011;10115;50.906;4.438;2022-07-10T14:08:59;1.55;;;1.45;;
19905;SDS011;10115;50.906;4.438;2022-07-10T14:11:25;3.40;;;1.42;;
19905;SDS011;10115;50.906;4.438;2022-07-10T14:13:51;3.55;;;1.63;;
19905;SDS011;10115;50.906;4.438;2022-07-10T14:16:16;1.33;;;1.23;;
19905;SDS011;10115;50.906;4.438;2022-07-10T14:18:42;1.30;;;1.13;;
19905;SDS011;10115;50.906;4.438;2022-07-10T14:21:09;3.17;;;1.30;;
19905;SDS011;10115;50.906;4.438;2022-07-10T14:23:37;1.75;;;1.50;;
19905;SDS011;10115;50.906;4.438;2022-07-10T14:26:04;2.00;;;1.35;;
19905;SDS011;10115;50.906;4.438;2022-07-10T14:28:31;1.17;;;1.00;;
19905;SDS011;10115;50.906;4.438;2022-07-10T14:30:57;2.83;;;1.23;;
19905;SDS011;10115;50.906;4.438;2022-07-10T14:33:25;1.40;;;1.20;;
19905;SDS011;10115;50.906;4.438;2022-07-10T14:35:51;1.25;;;1.00;;
19905;SDS011;10115;50.906;4.438;2022-07-10T14:38:17;1.05;;;0.98;;
19905;SDS011;10115;50.906;4.438;2022-07-10T14:40:43;3.40;;;1.65;;
19905;SDS011;10115;50.906;4.438;2022-07-10T14:43:08;2.40;;;1.48;;
19905;SDS011;10115;50.906;4.438;2022-07-10T14:45:35;4.15;;;1.45;;
19905;SDS011;10115;50.906;4.438;2022-07-10T14:48:01;1.67;;;1.20;;
19905;SDS011;10115;50.906;4.438;2022-07-10T14:50:27;1.10;;;1.10;;
19905;SDS011;10115;50.906;4.438;2022-07-10T14:52:52;2.67;;;1.13;;
19905;SDS011;10115;50.906;4.438;2022-07-10T14:55:18;1.10;;;1.00;;
19905;SDS011;10115;50.906;4.438;2022-07-10T14:57:44;1.35;;;1.25;;
19905;SDS011;10115;50.906;4.438;2022-07-10T15:00:10;1.88;;;1.00;;
19905;SDS011;10115;50.906;4.438;2022-07-10T15:02:36;2.53;;;1.20;;
19905;SDS011;10115;50.906;4.438;2022-07-10T15:05:02;1.90;;;1.02;;
19905;SDS011;10115;50.906;4.438;2022-07-10T15:07:28;1.02;;;1.00;;
19905;SDS011;10115;50.906;4.438;2022-07-10T15:09:54;1.52;;;1.35;;
19905;SDS011;10115;50.906;4.438;2022-07-10T15:12:20;1.25;;;1.15;;
19905;SDS011;10115;50.906;4.438;2022-07-10T15:14:46;3.45;;;1.50;;
19905;SDS011;10115;50.906;4.438;2022-07-10T15:17:12;1.77;;;1.63;;
19905;SDS011;10115;50.906;4.438;2022-07-10T15:19:37;1.60;;;1.02;;
19905;SDS011;10115;50.906;4.438;2022-07-10T15:22:03;0.93;;;0.93;;
19905;SDS011;10115;50.906;4.438;2022-07-10T15:24:29;2.25;;;1.08;;
19905;SDS011;10115;50.906;4.438;2022-07-10T15:26:56;1.45;;;1.02;;
19905;SDS011;10115;50.906;4.438;2022-07-10T15:29:22;3.50;;;1.58;;
19905;SDS011;10115;50.906;4.438;2022-07-10T15:31:50;1.33;;;0.98;;
19905;SDS011;10115;50.906;4.438;2022-07-10T15:34:19;1.40;;;1.27;;
19905;SDS011;10115;50.906;4.438;2022-07-10T15:36:44;1.65;;;1.25;;
19905;SDS011;10115;50.906;4.438;2022-07-10T15:39:11;1.45;;;1.15;;
19905;SDS011;10115;50.906;4.438;2022-07-10T15:41:38;2.15;;;1.48;;
19905;SDS011;10115;50.906;4.438;2022-07-10T15:44:05;2.20;;;1.13;;
19905;SDS011;10115;50.906;4.438;2022-07-10T15:46:31;3.65;;;1.50;;